Terminal Aerodrome Forecast
Issued by NWS San Angelo, TX

Home | Current Version | Previous Version | Text Only | Print | Product List | Glossary On
Versions: 1 2 3 4 5 6 7 8 9 10 11 12 13 14 15
000
FTUS44 KSJT 260520
TAFABI
TAF
KABI 260520Z 2606/2706 18012G18KT P6SM SCT250
     FM261400 20015G22KT P6SM OVC250 PROB30 2620/2622 P6SM TS
      BKN050CB
     FM262200 17016G23KT P6SM OVC250
      TEMPO 2622/2624 P6SM TS BKN050CB
     FM270000 17016G23KT P6SM TS OVC100CB
     FM270400 16014G21KT P6SM OVC050=

USA.gov is the U.S. government's official web portal to all federal, state and local government web resources and services.